Decoded Metar for GCHI (HIERRO in SPAIN) (IATA:VDE) | Meteo·Mobile Aviation Weather
aviador You're here:

GCHI Decoded Metar

HIERRO in SPAIN
Report Time2018-08-20 18:30:00
UTC Time2018-08-20 18:42:58
Flight Rules vfr VFR
Wind350° at 17 kt
W.Decomp.*RWY 34: 16.3 kt HW 5.0 kt RCW
W.Rank350° ranks 3
Current wind is above 350° avg. (14.7)
Visibility9999 m
Phenomena:N/A
Clouds:N/A
Expected CloudBase > 2,400 ft AGL from Temp-Dew spread
CeilingNone
Temp24°C (ISA +9)
Dew Point18°C (69% RH)
AAT20.7°C
QNH1015 hPa
Density Alt1,371 ft
Elevation98 ft
Report Wrong Elevation
Raw Report
GCHI 201830Z AUTO 35017KT CAVOK 24/18 Q1015=

Extra information for GCHI:More info

Metar Taf Metar & Taf Last 4 Metars F.Rules Stats Wind Profile Meteogram Temp Stats Airport Information Weather charts Add Link Nearby VenuesMetar ALERT Operation Metar Decoded Social comments